sensor_id;sensor_type;location;lat;lon;timestamp;pressure;altitude;pressure_sealevel;temperature;humidity
45813;BME280;31519;45.408;10.962;2023-04-26T00:00:46;100321.53;;;14.05;78.93
45813;BME280;31519;45.408;10.962;2023-04-26T00:03:14;100324.66;;;13.74;79.36
45813;BME280;31519;45.408;10.962;2023-04-26T00:05:42;100322.53;;;13.80;79.26
45813;BME280;31519;45.408;10.962;2023-04-26T00:08:10;100334.09;;;13.92;79.25
45813;BME280;31519;45.408;10.962;2023-04-26T00:10:38;100328.44;;;14.06;78.63
45813;BME280;31519;45.408;10.962;2023-04-26T00:13:07;100325.09;;;13.76;80.14
45813;BME280;31519;45.408;10.962;2023-04-26T00:15:35;100326.59;;;13.86;79.53
45813;BME280;31519;45.408;10.962;2023-04-26T00:18:03;100323.06;;;13.61;80.59
45813;BME280;31519;45.408;10.962;2023-04-26T00:20:31;100319.25;;;13.62;80.24
45813;BME280;31519;45.408;10.962;2023-04-26T00:22:59;100318.13;;;13.84;79.32
45813;BME280;31519;45.408;10.962;2023-04-26T00:25:27;100314.50;;;13.80;80.42
45813;BME280;31519;45.408;10.962;2023-04-26T00:27:55;100314.97;;;13.82;80.64
45813;BME280;31519;45.408;10.962;2023-04-26T00:30:22;100326.09;;;13.71;80.28
45813;BME280;31519;45.408;10.962;2023-04-26T00:32:50;100321.56;;;13.84;80.61
45813;BME280;31519;45.408;10.962;2023-04-26T00:35:18;100324.00;;;13.77;80.68
45813;BME280;31519;45.408;10.962;2023-04-26T00:37:46;100327.97;;;13.92;79.22
45813;BME280;31519;45.408;10.962;2023-04-26T00:40:14;100316.44;;;13.79;79.78
45813;BME280;31519;45.408;10.962;2023-04-26T00:42:43;100311.88;;;13.59;80.82
45813;BME280;31519;45.408;10.962;2023-04-26T00:45:12;100313.38;;;13.68;81.65
45813;BME280;31519;45.408;10.962;2023-04-26T00:47:39;100319.75;;;13.76;80.66
45813;BME280;31519;45.408;10.962;2023-04-26T00:50:07;100316.25;;;13.63;80.50
45813;BME280;31519;45.408;10.962;2023-04-26T00:52:37;100327.06;;;13.67;80.46
45813;BME280;31519;45.408;10.962;2023-04-26T00:55:05;100328.78;;;13.71;80.55
45813;BME280;31519;45.408;10.962;2023-04-26T00:57:34;100334.22;;;13.96;79.34
45813;BME280;31519;45.408;10.962;2023-04-26T01:00:02;100333.00;;;13.72;80.85
45813;BME280;31519;45.408;10.962;2023-04-26T01:02:30;100337.19;;;13.61;81.42
45813;BME280;31519;45.408;10.962;2023-04-26T01:04:58;100334.38;;;13.58;81.48
45813;BME280;31519;45.408;10.962;2023-04-26T01:07:27;100342.03;;;13.68;81.55
45813;BME280;31519;45.408;10.962;2023-04-26T01:09:54;100351.56;;;13.77;80.35
45813;BME280;31519;45.408;10.962;2023-04-26T01:12:23;100353.84;;;13.46;80.81
45813;BME280;31519;45.408;10.962;2023-04-26T01:14:51;100354.38;;;13.60;80.07
45813;BME280;31519;45.408;10.962;2023-04-26T01:17:19;100351.50;;;13.45;78.63
45813;BME280;31519;45.408;10.962;2023-04-26T01:19:47;100352.75;;;13.47;77.28
45813;BME280;31519;45.408;10.962;2023-04-26T01:22:15;100350.31;;;13.54;76.69
45813;BME280;31519;45.408;10.962;2023-04-26T01:24:44;100351.91;;;13.55;76.40
45813;BME280;31519;45.408;10.962;2023-04-26T01:27:13;100352.28;;;13.66;75.96
45813;BME280;31519;45.408;10.962;2023-04-26T01:29:41;100353.59;;;13.60;76.26
45813;BME280;31519;45.408;10.962;2023-04-26T01:32:09;100357.38;;;13.38;76.72
45813;BME280;31519;45.408;10.962;2023-04-26T01:34:38;100363.78;;;13.46;76.36
45813;BME280;31519;45.408;10.962;2023-04-26T01:37:06;100356.91;;;13.57;76.44
45813;BME280;31519;45.408;10.962;2023-04-26T01:39:34;100360.91;;;13.51;75.95
45813;BME280;31519;45.408;10.962;2023-04-26T01:42:03;100377.81;;;13.43;75.88
45813;BME280;31519;45.408;10.962;2023-04-26T01:44:31;100370.22;;;13.45;75.32
45813;BME280;31519;45.408;10.962;2023-04-26T01:47:01;100372.91;;;13.45;75.92
45813;BME280;31519;45.408;10.962;2023-04-26T01:49:29;100378.97;;;13.33;76.79
45813;BME280;31519;45.408;10.962;2023-04-26T01:51:57;100385.00;;;13.21;77.00
45813;BME280;31519;45.408;10.962;2023-04-26T01:54:25;100383.97;;;13.14;78.11
45813;BME280;31519;45.408;10.962;2023-04-26T01:56:54;100387.81;;;13.25;77.94
45813;BME280;31519;45.408;10.962;2023-04-26T01:59:22;100387.44;;;13.35;77.34
45813;BME280;31519;45.408;10.962;2023-04-26T02:01:49;100380.94;;;13.45;77.43
45813;BME280;31519;45.408;10.962;2023-04-26T02:04:17;100384.66;;;13.52;76.69
45813;BME280;31519;45.408;10.962;2023-04-26T02:06:45;100378.66;;;13.55;77.17
45813;BME280;31519;45.408;10.962;2023-04-26T02:09:16;100378.88;;;13.21;78.05
45813;BME280;31519;45.408;10.962;2023-04-26T02:11:44;100377.13;;;13.25;78.37
45813;BME280;31519;45.408;10.962;2023-04-26T02:14:12;100373.59;;;13.04;79.20
45813;BME280;31519;45.408;10.962;2023-04-26T02:16:41;100371.75;;;12.96;79.42
45813;BME280;31519;45.408;10.962;2023-04-26T02:19:09;100372.63;;;13.08;78.77
45813;BME280;31519;45.408;10.962;2023-04-26T02:21:53;100378.09;;;13.20;78.31
45813;BME280;31519;45.408;10.962;2023-04-26T02:24:22;100385.78;;;13.22;77.39
45813;BME280;31519;45.408;10.962;2023-04-26T02:26:50;100375.16;;;13.13;77.68
45813;BME280;31519;45.408;10.962;2023-04-26T02:29:19;100379.84;;;13.16;77.22
45813;BME280;31519;45.408;10.962;2023-04-26T02:32:02;100382.22;;;13.18;76.73
45813;BME280;31519;45.408;10.962;2023-04-26T02:34:31;100381.34;;;12.97;76.99
45813;BME280;31519;45.408;10.962;2023-04-26T02:36:59;100377.47;;;12.85;77.74
45813;BME280;31519;45.408;10.962;2023-04-26T02:39:28;100384.88;;;13.18;75.43
45813;BME280;31519;45.408;10.962;2023-04-26T02:41:55;100386.03;;;13.00;75.66
45813;BME280;31519;45.408;10.962;2023-04-26T02:44:24;100373.91;;;13.02;75.16
45813;BME280;31519;45.408;10.962;2023-04-26T02:46:52;100376.84;;;12.80;75.11
45813;BME280;31519;45.408;10.962;2023-04-26T02:49:20;100389.88;;;12.90;73.85
45813;BME280;31519;45.408;10.962;2023-04-26T02:51:48;100383.91;;;12.84;73.14
45813;BME280;31519;45.408;10.962;2023-04-26T02:54:15;100380.34;;;13.10;72.11
45813;BME280;31519;45.408;10.962;2023-04-26T02:56:44;100390.56;;;13.08;72.32
45813;BME280;31519;45.408;10.962;2023-04-26T02:59:11;100390.47;;;12.96;73.42
45813;BME280;31519;45.408;10.962;2023-04-26T03:01:40;100382.47;;;12.96;73.69
45813;BME280;31519;45.408;10.962;2023-04-26T03:04:07;100395.78;;;13.04;71.97
45813;BME280;31519;45.408;10.962;2023-04-26T03:06:37;100394.47;;;12.81;71.07
45813;BME280;31519;45.408;10.962;2023-04-26T03:09:05;100400.28;;;12.19;74.55
45813;BME280;31519;45.408;10.962;2023-04-26T03:11:33;100392.25;;;12.36;73.85
45813;BME280;31519;45.408;10.962;2023-04-26T03:14:01;100402.28;;;12.39;73.83
45813;BME280;31519;45.408;10.962;2023-04-26T03:16:30;100410.28;;;12.48;73.37
45813;BME280;31519;45.408;10.962;2023-04-26T03:18:58;100407.06;;;11.82;77.67
45813;BME280;31519;45.408;10.962;2023-04-26T03:21:26;100410.53;;;12.00;76.86
45813;BME280;31519;45.408;10.962;2023-04-26T03:23:54;100414.00;;;12.01;77.37
45813;BME280;31519;45.408;10.962;2023-04-26T03:26:22;100409.09;;;11.68;79.73
45813;BME280;31519;45.408;10.962;2023-04-26T03:28:50;100423.41;;;11.81;79.18
45813;BME280;31519;45.408;10.962;2023-04-26T03:31:19;100421.53;;;11.25;82.00
45813;BME280;31519;45.408;10.962;2023-04-26T03:33:48;100412.31;;;11.39;81.79
45813;BME280;31519;45.408;10.962;2023-04-26T03:36:16;100415.19;;;11.69;80.24
45813;BME280;31519;45.408;10.962;2023-04-26T03:38:44;100416.44;;;11.63;80.72
45813;BME280;31519;45.408;10.962;2023-04-26T03:41:14;100421.28;;;11.61;80.82
45813;BME280;31519;45.408;10.962;2023-04-26T03:43:41;100418.63;;;11.52;81.81
45813;BME280;31519;45.408;10.962;2023-04-26T03:46:10;100430.34;;;11.25;83.37
45813;BME280;31519;45.408;10.962;2023-04-26T03:48:37;100419.22;;;11.32;83.99
45813;BME280;31519;45.408;10.962;2023-04-26T03:51:05;100431.31;;;11.46;83.53
45813;BME280;31519;45.408;10.962;2023-04-26T03:53:33;100442.28;;;11.36;83.88
45813;BME280;31519;45.408;10.962;2023-04-26T03:56:01;100449.50;;;11.36;84.01
45813;BME280;31519;45.408;10.962;2023-04-26T03:58:30;100454.97;;;11.31;84.40
45813;BME280;31519;45.408;10.962;2023-04-26T04:00:58;100449.38;;;11.41;84.16
45813;BME280;31519;45.408;10.962;2023-04-26T04:03:26;100449.97;;;11.38;84.86
45813;BME280;31519;45.408;10.962;2023-04-26T04:05:56;100451.56;;;11.47;84.68
45813;BME280;31519;45.408;10.962;2023-04-26T04:08:24;100446.25;;;11.56;84.10
45813;BME280;31519;45.408;10.962;2023-04-26T04:10:52;100457.31;;;11.89;82.98
45813;BME280;31519;45.408;10.962;2023-04-26T04:13:20;100453.22;;;11.83;82.46
45813;BME280;31519;45.408;10.962;2023-04-26T04:15:50;100467.13;;;11.63;83.31
45813;BME280;31519;45.408;10.962;2023-04-26T04:18:18;100467.44;;;11.61;83.82
45813;BME280;31519;45.408;10.962;2023-04-26T04:20:46;100472.06;;;11.30;85.23
45813;BME280;31519;45.408;10.962;2023-04-26T04:23:14;100470.22;;;11.39;85.00
45813;BME280;31519;45.408;10.962;2023-04-26T04:25:42;100486.50;;;11.77;84.47
45813;BME280;31519;45.408;10.962;2023-04-26T04:28:12;100472.81;;;11.78;82.80
45813;BME280;31519;45.408;10.962;2023-04-26T04:30:41;100476.53;;;11.60;84.14
45813;BME280;31519;45.408;10.962;2023-04-26T04:33:10;100483.16;;;11.71;84.08
45813;BME280;31519;45.408;10.962;2023-04-26T04:35:40;100481.97;;;12.12;82.17
45813;BME280;31519;45.408;10.962;2023-04-26T04:38:08;100482.44;;;12.05;82.03
45813;BME280;31519;45.408;10.962;2023-04-26T04:40:36;100477.09;;;11.96;82.81
45813;BME280;31519;45.408;10.962;2023-04-26T04:43:04;100477.09;;;12.22;81.97
45813;BME280;31519;45.408;10.962;2023-04-26T04:45:32;100477.09;;;12.31;81.47
45813;BME280;31519;45.408;10.962;2023-04-26T04:48:00;100480.38;;;12.19;81.39
45813;BME280;31519;45.408;10.962;2023-04-26T04:50:28;100478.22;;;11.95;82.75
45813;BME280;31519;45.408;10.962;2023-04-26T04:52:58;100482.13;;;12.32;82.09
45813;BME280;31519;45.408;10.962;2023-04-26T04:55:27;100492.16;;;12.44;80.92
45813;BME280;31519;45.408;10.962;2023-04-26T04:57:55;100494.34;;;12.42;80.46
45813;BME280;31519;45.408;10.962;2023-04-26T05:00:23;100500.34;;;12.39;80.65
45813;BME280;31519;45.408;10.962;2023-04-26T05:03:03;100500.06;;;12.23;81.29
45813;BME280;31519;45.408;10.962;2023-04-26T05:05:31;100505.69;;;12.30;80.55
45813;BME280;31519;45.408;10.962;2023-04-26T05:07:59;100502.84;;;12.53;79.83
45813;BME280;31519;45.408;10.962;2023-04-26T05:10:27;100507.63;;;12.94;77.41
45813;BME280;31519;45.408;10.962;2023-04-26T05:12:56;100510.91;;;13.08;76.96
45813;BME280;31519;45.408;10.962;2023-04-26T05:15:24;100510.63;;;12.83;77.57
45813;BME280;31519;45.408;10.962;2023-04-26T05:17:52;100513.56;;;13.08;77.53
45813;BME280;31519;45.408;10.962;2023-04-26T05:20:24;100515.47;;;13.07;77.42
45813;BME280;31519;45.408;10.962;2023-04-26T05:22:52;100524.97;;;13.34;77.11
45813;BME280;31519;45.408;10.962;2023-04-26T05:25:20;100525.78;;;13.35;76.54
45813;BME280;31519;45.408;10.962;2023-04-26T05:27:55;100526.69;;;13.47;76.30
45813;BME280;31519;45.408;10.962;2023-04-26T05:30:40;100531.38;;;13.80;75.47
45813;BME280;31519;45.408;10.962;2023-04-26T05:33:20;100541.19;;;13.67;75.28
45813;BME280;31519;45.408;10.962;2023-04-26T05:35:54;100540.94;;;14.10;73.96
45813;BME280;31519;45.408;10.962;2023-04-26T05:38:24;100552.88;;;13.92;73.87
45813;BME280;31519;45.408;10.962;2023-04-26T05:40:52;100551.06;;;13.84;73.18
45813;BME280;31519;45.408;10.962;2023-04-26T05:43:20;100555.69;;;13.95;73.86
45813;BME280;31519;45.408;10.962;2023-04-26T05:45:54;100557.44;;;14.41;72.48
45813;BME280;31519;45.408;10.962;2023-04-26T05:48:24;100559.25;;;14.49;71.13
45813;BME280;31519;45.408;10.962;2023-04-26T05:50:52;100557.25;;;14.46;70.99
45813;BME280;31519;45.408;10.962;2023-04-26T05:53:20;100560.56;;;14.23;71.06
45813;BME280;31519;45.408;10.962;2023-04-26T05:55:48;100562.00;;;13.70;72.10
45813;BME280;31519;45.408;10.962;2023-04-26T05:58:16;100563.28;;;14.43;70.33
45813;BME280;31519;45.408;10.962;2023-04-26T06:00:46;100564.06;;;14.35;70.13
45813;BME280;31519;45.408;10.962;2023-04-26T06:03:14;100566.47;;;14.90;69.27
45813;BME280;31519;45.408;10.962;2023-04-26T06:05:43;100572.00;;;15.18;68.55
45813;BME280;31519;45.408;10.962;2023-04-26T06:08:11;100565.53;;;15.31;68.07
45813;BME280;31519;45.408;10.962;2023-04-26T06:10:39;100575.19;;;15.44;67.50
45813;BME280;31519;45.408;10.962;2023-04-26T06:13:06;100578.13;;;15.64;66.34
45813;BME280;31519;45.408;10.962;2023-04-26T06:15:37;100580.06;;;15.75;65.48
45813;BME280;31519;45.408;10.962;2023-04-26T06:18:05;100576.56;;;15.87;63.94
45813;BME280;31519;45.408;10.962;2023-04-26T06:20:34;100577.69;;;15.98;63.85
45813;BME280;31519;45.408;10.962;2023-04-26T06:23:05;100577.03;;;15.89;63.84
45813;BME280;31519;45.408;10.962;2023-04-26T06:25:34;100585.94;;;16.17;63.72
45813;BME280;31519;45.408;10.962;2023-04-26T06:28:03;100584.22;;;16.37;62.30
45813;BME280;31519;45.408;10.962;2023-04-26T06:30:33;100579.47;;;16.46;61.15
45813;BME280;31519;45.408;10.962;2023-04-26T06:33:02;100580.38;;;16.62;59.09
45813;BME280;31519;45.408;10.962;2023-04-26T06:35:32;100587.88;;;16.84;55.65
45813;BME280;31519;45.408;10.962;2023-04-26T06:38:01;100583.28;;;16.85;55.43
45813;BME280;31519;45.408;10.962;2023-04-26T06:40:29;100594.78;;;16.98;54.70
45813;BME280;31519;45.408;10.962;2023-04-26T06:42:56;100590.91;;;17.26;54.08
45813;BME280;31519;45.408;10.962;2023-04-26T06:45:38;100593.19;;;17.56;53.40
45813;BME280;31519;45.408;10.962;2023-04-26T06:48:10;100597.78;;;17.55;52.28
45813;BME280;31519;45.408;10.962;2023-04-26T06:50:38;100588.75;;;17.48;51.55
45813;BME280;31519;45.408;10.962;2023-04-26T06:53:06;100596.69;;;17.72;51.77
45813;BME280;31519;45.408;10.962;2023-04-26T06:55:34;100597.53;;;17.92;51.37
45813;BME280;31519;45.408;10.962;2023-04-26T06:58:02;100597.22;;;17.78;49.59
45813;BME280;31519;45.408;10.962;2023-04-26T07:00:30;100599.84;;;18.09;46.49
45813;BME280;31519;45.408;10.962;2023-04-26T07:02:58;100594.84;;;18.27;45.44
45813;BME280;31519;45.408;10.962;2023-04-26T07:05:26;100597.47;;;18.23;44.46
45813;BME280;31519;45.408;10.962;2023-04-26T07:07:54;100600.09;;;18.39;44.32
45813;BME280;31519;45.408;10.962;2023-04-26T07:10:22;100607.69;;;18.33;45.10
45813;BME280;31519;45.408;10.962;2023-04-26T07:12:50;100607.19;;;18.63;44.76
45813;BME280;31519;45.408;10.962;2023-04-26T07:15:18;100614.06;;;18.60;44.76
45813;BME280;31519;45.408;10.962;2023-04-26T07:17:46;100606.69;;;18.76;44.23
45813;BME280;31519;45.408;10.962;2023-04-26T07:20:14;100608.81;;;18.67;43.87
45813;BME280;31519;45.408;10.962;2023-04-26T07:22:46;100603.94;;;19.15;43.21
45813;BME280;31519;45.408;10.962;2023-04-26T07:25:14;100607.84;;;18.98;42.13
45813;BME280;31519;45.408;10.962;2023-04-26T07:27:42;100602.56;;;19.24;42.34
45813;BME280;31519;45.408;10.962;2023-04-26T07:30:10;100608.53;;;19.56;42.08
45813;BME280;31519;45.408;10.962;2023-04-26T07:32:38;100606.53;;;19.53;41.84
45813;BME280;31519;45.408;10.962;2023-04-26T07:35:06;100600.94;;;19.42;40.92
45813;BME280;31519;45.408;10.962;2023-04-26T07:37:34;100598.78;;;19.74;41.55
45813;BME280;31519;45.408;10.962;2023-04-26T07:40:02;100601.63;;;19.59;41.84
45813;BME280;31519;45.408;10.962;2023-04-26T07:42:31;100603.41;;;19.74;42.08
45813;BME280;31519;45.408;10.962;2023-04-26T07:44:59;100606.66;;;19.83;42.78
45813;BME280;31519;45.408;10.962;2023-04-26T07:47:27;100602.75;;;20.07;42.55
45813;BME280;31519;45.408;10.962;2023-04-26T07:49:55;100605.84;;;19.56;43.65
45813;BME280;31519;45.408;10.962;2023-04-26T07:52:22;100613.81;;;19.49;43.33
45813;BME280;31519;45.408;10.962;2023-04-26T07:54:50;100608.03;;;19.73;42.88
45813;BME280;31519;45.408;10.962;2023-04-26T07:57:18;100612.69;;;19.31;42.70
45813;BME280;31519;45.408;10.962;2023-04-26T07:59:46;100610.22;;;19.64;42.83
45813;BME280;31519;45.408;10.962;2023-04-26T08:02:14;100619.22;;;19.49;42.64
45813;BME280;31519;45.408;10.962;2023-04-26T08:04:46;100616.00;;;18.59;44.67
45813;BME280;31519;45.408;10.962;2023-04-26T08:07:15;100613.97;;;18.37;45.34
45813;BME280;31519;45.408;10.962;2023-04-26T08:09:43;100615.34;;;19.27;44.20
45813;BME280;31519;45.408;10.962;2023-04-26T08:12:11;100612.47;;;19.62;43.53
45813;BME280;31519;45.408;10.962;2023-04-26T08:14:39;100614.09;;;19.44;42.69
45813;BME280;31519;45.408;10.962;2023-04-26T08:17:07;100610.53;;;19.17;43.93
45813;BME280;31519;45.408;10.962;2023-04-26T08:19:39;100610.25;;;19.68;43.50
45813;BME280;31519;45.408;10.962;2023-04-26T08:22:07;100615.94;;;19.85;43.43
45813;BME280;31519;45.408;10.962;2023-04-26T08:24:35;100613.19;;;19.82;43.75
45813;BME280;31519;45.408;10.962;2023-04-26T08:27:03;100622.47;;;19.84;44.10
45813;BME280;31519;45.408;10.962;2023-04-26T08:29:33;100608.81;;;20.26;42.90
45813;BME280;31519;45.408;10.962;2023-04-26T08:32:01;100621.13;;;19.71;43.69
45813;BME280;31519;45.408;10.962;2023-04-26T08:34:29;100617.94;;;19.88;43.19
45813;BME280;31519;45.408;10.962;2023-04-26T08:36:57;100622.78;;;20.02;43.37
45813;BME280;31519;45.408;10.962;2023-04-26T08:39:25;100622.78;;;20.02;42.60
45813;BME280;31519;45.408;10.962;2023-04-26T08:41:53;100624.06;;;20.38;42.95
45813;BME280;31519;45.408;10.962;2023-04-26T08:44:24;100627.88;;;19.84;44.31
45813;BME280;31519;45.408;10.962;2023-04-26T08:51:50;100631.59;;;19.99;44.20
45813;BME280;31519;45.408;10.962;2023-04-26T08:54:20;100629.09;;;20.40;43.58
45813;BME280;31519;45.408;10.962;2023-04-26T08:56:48;100631.34;;;20.08;44.05
45813;BME280;31519;45.408;10.962;2023-04-26T08:59:16;100625.69;;;20.43;43.07
45813;BME280;31519;45.408;10.962;2023-04-26T09:01:44;100636.34;;;20.32;42.66
45813;BME280;31519;45.408;10.962;2023-04-26T09:04:13;100625.22;;;20.37;42.33
45813;BME280;31519;45.408;10.962;2023-04-26T09:06:41;100632.81;;;20.88;43.00
45813;BME280;31519;45.408;10.962;2023-04-26T09:09:10;100634.41;;;20.92;43.40
45813;BME280;31519;45.408;10.962;2023-04-26T09:11:53;100634.28;;;21.15;43.54
45813;BME280;31519;45.408;10.962;2023-04-26T09:14:21;100633.31;;;21.34;43.05
45813;BME280;31519;45.408;10.962;2023-04-26T09:16:48;100643.44;;;20.70;43.12
45813;BME280;31519;45.408;10.962;2023-04-26T09:19:17;100630.50;;;21.23;42.36
45813;BME280;31519;45.408;10.962;2023-04-26T09:21:45;100637.59;;;20.68;42.54
45813;BME280;31519;45.408;10.962;2023-04-26T09:24:13;100641.72;;;20.88;41.53
45813;BME280;31519;45.408;10.962;2023-04-26T09:26:41;100638.38;;;20.68;41.66
45813;BME280;31519;45.408;10.962;2023-04-26T09:29:10;100632.00;;;21.17;41.12
45813;BME280;31519;45.408;10.962;2023-04-26T09:31:39;100639.88;;;20.99;39.93
45813;BME280;31519;45.408;10.962;2023-04-26T09:34:09;100635.97;;;20.93;42.51
45813;BME280;31519;45.408;10.962;2023-04-26T09:36:46;100640.00;;;20.76;44.57
45813;BME280;31519;45.408;10.962;2023-04-26T09:39:20;100627.25;;;21.51;44.09
45813;BME280;31519;45.408;10.962;2023-04-26T09:41:57;100633.91;;;21.16;43.76
45813;BME280;31519;45.408;10.962;2023-04-26T09:44:25;100625.75;;;21.53;43.39
45813;BME280;31519;45.408;10.962;2023-04-26T09:49:43;100625.31;;;21.48;42.77
45813;BME280;31519;45.408;10.962;2023-04-26T09:52:11;100637.28;;;21.43;43.53
45813;BME280;31519;45.408;10.962;2023-04-26T09:57:11;100632.16;;;20.98;43.76
45813;BME280;31519;45.408;10.962;2023-04-26T09:59:40;100621.97;;;21.65;42.44
45813;BME280;31519;45.408;10.962;2023-04-26T10:02:12;100625.47;;;21.21;42.29
45813;BME280;31519;45.408;10.962;2023-04-26T10:04:42;100635.94;;;20.90;43.96
45813;BME280;31519;45.408;10.962;2023-04-26T10:07:11;100622.44;;;21.78;42.80
45813;BME280;31519;45.408;10.962;2023-04-26T10:09:39;100622.28;;;22.04;41.39
45813;BME280;31519;45.408;10.962;2023-04-26T10:12:09;100622.16;;;22.55;40.61
45813;BME280;31519;45.408;10.962;2023-04-26T10:14:37;100622.75;;;23.03;38.74
45813;BME280;31519;45.408;10.962;2023-04-26T10:17:05;100624.88;;;22.55;38.95
45813;BME280;31519;45.408;10.962;2023-04-26T10:19:34;100628.28;;;22.34;39.44
45813;BME280;31519;45.408;10.962;2023-04-26T10:22:22;100625.78;;;21.57;42.06
45813;BME280;31519;45.408;10.962;2023-04-26T10:24:50;100612.47;;;21.41;42.82
45813;BME280;31519;45.408;10.962;2023-04-26T10:30:07;100612.19;;;22.01;41.02
45813;BME280;31519;45.408;10.962;2023-04-26T10:35:20;100603.75;;;23.14;42.88
45813;BME280;31519;45.408;10.962;2023-04-26T10:40:29;100607.59;;;23.02;41.58
45813;BME280;31519;45.408;10.962;2023-04-26T10:45:38;100597.84;;;22.83;41.04
45813;BME280;31519;45.408;10.962;2023-04-26T10:48:13;100589.56;;;21.86;42.79
45813;BME280;31519;45.408;10.962;2023-04-26T10:55:59;100592.56;;;22.29;40.35
45813;BME280;31519;45.408;10.962;2023-04-26T10:58:28;100604.13;;;22.12;40.76
45813;BME280;31519;45.408;10.962;2023-04-26T11:01:09;100590.59;;;23.51;39.02
45813;BME280;31519;45.408;10.962;2023-04-26T11:06:25;100586.44;;;22.46;40.61
45813;BME280;31519;45.408;10.962;2023-04-26T11:11:24;100586.47;;;22.49;41.39
45813;BME280;31519;45.408;10.962;2023-04-26T11:13:53;100577.97;;;21.86;43.89
45813;BME280;31519;45.408;10.962;2023-04-26T11:16:27;100579.19;;;22.75;42.07
45813;BME280;31519;45.408;10.962;2023-04-26T11:18:55;100574.97;;;24.08;40.25
45813;BME280;31519;45.408;10.962;2023-04-26T11:21:24;100569.56;;;23.16;40.19
45813;BME280;31519;45.408;10.962;2023-04-26T11:23:53;100572.28;;;23.02;40.55
45813;BME280;31519;45.408;10.962;2023-04-26T11:26:21;100565.50;;;22.46;43.40
45813;BME280;31519;45.408;10.962;2023-04-26T11:28:52;100559.47;;;23.20;42.74
45813;BME280;31519;45.408;10.962;2023-04-26T11:31:22;100573.03;;;24.16;38.22
45813;BME280;31519;45.408;10.962;2023-04-26T11:33:49;100561.84;;;23.54;36.99
45813;BME280;31519;45.408;10.962;2023-04-26T11:36:17;100567.25;;;23.01;38.79
45813;BME280;31519;45.408;10.962;2023-04-26T11:38:46;100556.41;;;23.36;38.57
45813;BME280;31519;45.408;10.962;2023-04-26T11:41:14;100560.53;;;24.25;36.51
45813;BME280;31519;45.408;10.962;2023-04-26T11:43:42;100554.44;;;24.80;36.95
45813;BME280;31519;45.408;10.962;2023-04-26T11:46:10;100562.94;;;23.88;37.56
45813;BME280;31519;45.408;10.962;2023-04-26T11:48:38;100560.28;;;23.74;38.36
45813;BME280;31519;45.408;10.962;2023-04-26T11:51:06;100547.78;;;23.98;37.76
45813;BME280;31519;45.408;10.962;2023-04-26T11:53:38;100552.50;;;23.83;37.69
45813;BME280;31519;45.408;10.962;2023-04-26T11:56:16;100546.69;;;23.74;37.05
45813;BME280;31519;45.408;10.962;2023-04-26T11:58:48;100541.66;;;23.23;38.38
45813;BME280;31519;45.408;10.962;2023-04-26T12:01:27;100544.81;;;24.65;36.15
45813;BME280;31519;45.408;10.962;2023-04-26T12:03:58;100542.38;;;24.81;36.36
45813;BME280;31519;45.408;10.962;2023-04-26T12:06:30;100544.34;;;23.72;36.86
45813;BME280;31519;45.408;10.962;2023-04-26T12:09:02;100546.69;;;23.21;35.35
45813;BME280;31519;45.408;10.962;2023-04-26T12:11:33;100547.84;;;23.09;35.08
45813;BME280;31519;45.408;10.962;2023-04-26T12:14:00;100552.44;;;22.80;35.86
45813;BME280;31519;45.408;10.962;2023-04-26T12:16:28;100537.69;;;22.71;38.25
45813;BME280;31519;45.408;10.962;2023-04-26T12:18:56;100532.56;;;22.51;39.81
45813;BME280;31519;45.408;10.962;2023-04-26T12:21:24;100535.03;;;23.52;38.65
45813;BME280;31519;45.408;10.962;2023-04-26T12:23:55;100532.19;;;24.23;37.04
45813;BME280;31519;45.408;10.962;2023-04-26T12:26:38;100529.00;;;25.56;34.83
45813;BME280;31519;45.408;10.962;2023-04-26T12:29:06;100530.72;;;25.77;35.51
45813;BME280;31519;45.408;10.962;2023-04-26T12:31:34;100536.22;;;24.66;37.61
45813;BME280;31519;45.408;10.962;2023-04-26T12:34:02;100536.94;;;24.78;37.59
45813;BME280;31519;45.408;10.962;2023-04-26T12:36:30;100532.69;;;23.12;39.89
45813;BME280;31519;45.408;10.962;2023-04-26T12:38:57;100531.16;;;23.67;38.94
45813;BME280;31519;45.408;10.962;2023-04-26T12:41:27;100530.34;;;23.81;38.28
45813;BME280;31519;45.408;10.962;2023-04-26T12:43:55;100533.88;;;23.64;36.49
45813;BME280;31519;45.408;10.962;2023-04-26T12:46:23;100543.53;;;24.87;35.14
45813;BME280;31519;45.408;10.962;2023-04-26T12:48:52;100534.84;;;24.30;35.29
45813;BME280;31519;45.408;10.962;2023-04-26T12:51:20;100527.78;;;24.50;34.96
45813;BME280;31519;45.408;10.962;2023-04-26T12:53:48;100533.41;;;23.94;33.87
45813;BME280;31519;45.408;10.962;2023-04-26T12:56:16;100534.03;;;24.40;33.22
45813;BME280;31519;45.408;10.962;2023-04-26T12:58:44;100534.19;;;23.91;35.88
45813;BME280;31519;45.408;10.962;2023-04-26T13:01:12;100533.47;;;23.51;34.84
45813;BME280;31519;45.408;10.962;2023-04-26T13:03:40;100536.53;;;23.92;35.87
45813;BME280;31519;45.408;10.962;2023-04-26T13:06:09;100531.47;;;23.83;36.16
45813;BME280;31519;45.408;10.962;2023-04-26T13:08:36;100532.06;;;24.51;32.33
45813;BME280;31519;45.408;10.962;2023-04-26T13:11:04;100530.66;;;24.18;32.69
45813;BME280;31519;45.408;10.962;2023-04-26T13:13:32;100532.59;;;26.21;30.93
45813;BME280;31519;45.408;10.962;2023-04-26T13:16:10;100524.19;;;25.67;31.30
45813;BME280;31519;45.408;10.962;2023-04-26T13:18:39;100511.19;;;24.20;33.09
45813;BME280;31519;45.408;10.962;2023-04-26T13:21:08;100513.34;;;24.53;32.38